createdAt,value
2019-03-01T00:02:27.388Z,22.90
2019-03-01T00:05:32.976Z,24.18
2019-03-01T00:08:45.357Z,22.37
2019-03-01T00:11:39.552Z,33.00
2019-03-01T00:14:47.992Z,20.62
2019-03-01T00:17:30.719Z,25.17
2019-03-01T00:21:07.837Z,27.65
2019-03-01T00:24:10.138Z,25.82
2019-03-01T00:27:12.166Z,15.53
2019-03-01T00:30:42.862Z,25.25
2019-03-01T00:33:54.037Z,22.42
2019-03-01T00:36:49.743Z,21.85
2019-03-01T00:39:51.726Z,16.52
2019-03-01T00:43:01.407Z,22.20
2019-03-01T00:45:29.285Z,16.82
2019-03-01T00:47:56.793Z,19.82
2019-03-01T00:50:24.386Z,23.70
2019-03-01T00:52:51.907Z,18.48
2019-03-01T00:55:19.411Z,15.23
2019-03-01T00:57:46.907Z,18.23
2019-03-01T01:00:20.935Z,19.95
2019-03-01T01:02:48.518Z,14.47
2019-03-01T01:05:16.016Z,21.68
2019-03-01T01:07:44.022Z,14.75
2019-03-01T01:10:11.472Z,17.40
2019-03-01T01:12:39.007Z,15.45
2019-03-01T01:15:06.603Z,11.28
2019-03-01T01:17:53.598Z,15.78
2019-03-01T01:20:21.136Z,15.50
2019-03-01T01:22:48.623Z,21.45
2019-03-01T01:25:16.120Z,18.42
2019-03-01T01:27:43.607Z,15.75
2019-03-01T01:30:11.587Z,23.02
2019-03-01T01:32:39.160Z,14.53
2019-03-01T01:35:06.719Z,18.63
2019-03-01T01:37:34.227Z,18.20
2019-03-01T01:40:02.173Z,19.23
2019-03-01T01:42:29.623Z,16.57
2019-03-01T01:44:57.286Z,16.20
2019-03-01T01:47:24.806Z,19.17
2019-03-01T01:49:52.642Z,20.00
2019-03-01T01:52:20.747Z,16.43
2019-03-01T01:54:48.801Z,15.03
2019-03-01T01:57:16.748Z,16.43
2019-03-01T01:59:44.282Z,16.20
2019-03-01T02:02:11.866Z,21.17
2019-03-01T02:04:39.478Z,23.83
2019-03-01T02:07:06.988Z,20.37
2019-03-01T02:09:35.396Z,22.47
2019-03-01T02:12:02.910Z,22.00
2019-03-01T02:14:30.436Z,19.00
2019-03-01T02:16:58.068Z,16.83
2019-03-01T02:19:25.540Z,20.93
2019-03-01T02:21:53.113Z,23.43
2019-03-01T02:24:20.676Z,22.53
2019-03-01T02:26:48.260Z,21.43
2019-03-01T02:29:15.827Z,16.70
2019-03-01T02:31:58.705Z,16.10
2019-03-01T02:34:26.249Z,24.07
2019-03-01T02:36:53.829Z,29.90
2019-03-01T02:39:21.359Z,17.97
2019-03-01T02:41:48.865Z,19.17
2019-03-01T02:44:16.427Z,20.70
2019-03-01T02:46:44.000Z,21.67
2019-03-01T02:49:11.634Z,24.03
2019-03-01T02:51:39.127Z,14.77
2019-03-01T02:54:06.744Z,12.67
2019-03-01T02:56:34.303Z,17.53
2019-03-01T02:59:01.863Z,13.27
2019-03-01T03:01:29.434Z,23.37
2019-03-01T03:03:56.996Z,19.63
2019-03-01T03:06:39.349Z,22.00
2019-03-01T03:09:07.004Z,17.33
2019-03-01T03:11:34.488Z,19.73
2019-03-01T03:14:02.077Z,16.93
2019-03-01T03:16:29.575Z,16.20
2019-03-01T03:18:57.189Z,17.67
2019-03-01T03:21:24.688Z,18.80
2019-03-01T03:23:52.288Z,13.53
2019-03-01T03:26:19.895Z,11.73
2019-03-01T03:28:47.394Z,13.03
2019-03-01T03:31:14.984Z,11.80
2019-03-01T03:33:42.593Z,14.80
2019-03-01T03:36:10.127Z,13.63
2019-03-01T03:38:37.664Z,14.97
2019-03-01T03:41:05.338Z,10.97
2019-03-01T03:43:32.914Z,22.37
2019-03-01T03:46:00.400Z,12.87
2019-03-01T03:48:27.979Z,13.50
2019-03-01T03:50:55.501Z,14.87
2019-03-01T03:53:23.144Z,13.37
2019-03-01T03:55:50.926Z,11.87
2019-03-01T03:58:19.773Z,10.07
2019-03-01T04:00:47.387Z,10.40
2019-03-01T04:03:14.888Z,15.97
2019-03-01T04:05:42.459Z,12.70
2019-03-01T04:08:10.028Z,14.53
2019-03-01T04:10:37.527Z,12.13
2019-03-01T04:13:05.106Z,11.47
2019-03-01T04:15:32.585Z,11.27
2019-03-01T04:18:00.876Z,11.63
2019-03-01T04:20:28.424Z,12.23
2019-03-01T04:22:55.965Z,14.23
2019-03-01T04:25:23.542Z,14.57
2019-03-01T04:27:53.245Z,15.70
2019-03-01T04:30:20.425Z,15.45
2019-03-01T04:32:48.105Z,15.03
2019-03-01T04:35:16.212Z,15.97
2019-03-01T04:37:43.855Z,22.23
2019-03-01T04:43:00.263Z,18.80
2019-03-01T04:45:27.752Z,21.50
2019-03-01T04:47:55.337Z,16.10
2019-03-01T04:50:22.878Z,23.10
2019-03-01T04:52:50.782Z,19.70
2019-03-01T04:55:20.447Z,21.77
2019-03-01T04:57:47.988Z,19.60
2019-03-01T05:00:17.475Z,19.07
2019-03-01T05:02:45.253Z,22.07
2019-03-01T05:05:13.281Z,18.80
2019-03-01T05:07:40.793Z,18.80
2019-03-01T05:10:09.450Z,24.23
2019-03-01T05:12:37.040Z,18.17
2019-03-01T05:15:04.966Z,20.87
2019-03-01T05:17:32.620Z,20.97
2019-03-01T05:20:00.225Z,27.63
2019-03-01T05:22:28.137Z,23.60
2019-03-01T05:24:55.733Z,21.97
2019-03-01T05:27:24.373Z,20.03
2019-03-01T05:29:52.211Z,26.03
2019-03-01T05:32:22.766Z,28.73
2019-03-01T05:34:50.282Z,27.30
2019-03-01T05:37:17.832Z,22.93
2019-03-01T05:39:45.389Z,24.17
2019-03-01T05:42:12.927Z,28.33
2019-03-01T05:44:40.448Z,19.37
2019-03-01T05:47:07.928Z,23.83
2019-03-01T05:49:35.744Z,21.27
2019-03-01T05:52:03.384Z,25.03
2019-03-01T05:54:30.952Z,24.10
2019-03-01T05:56:58.546Z,26.47
2019-03-01T05:59:27.852Z,19.00
2019-03-01T06:02:30.343Z,21.60
2019-03-01T06:05:00.671Z,23.23
2019-03-01T06:07:56.647Z,23.77
2019-03-01T06:10:55.855Z,17.73
2019-03-01T06:14:23.460Z,19.47
2019-03-01T06:17:30.186Z,20.73
2019-03-01T06:20:11.591Z,18.43
2019-03-01T06:23:04.351Z,18.47
2019-03-01T06:25:54.021Z,32.40
2019-03-01T06:28:50.466Z,22.77
2019-03-01T06:32:12.154Z,25.47
2019-03-01T06:35:04.356Z,21.07
2019-03-01T06:38:10.776Z,20.93
2019-03-01T06:41:25.625Z,22.03
2019-03-01T06:44:33.288Z,20.20
2019-03-01T06:47:46.397Z,18.87
2019-03-01T06:50:18.249Z,19.27
2019-03-01T06:52:45.732Z,16.83
2019-03-01T06:55:38.585Z,19.83
2019-03-01T06:58:08.225Z,20.33
2019-03-01T07:00:49.475Z,21.07
2019-03-01T07:03:09.287Z,16.50
2019-03-01T07:05:36.844Z,18.50
2019-03-01T07:08:04.341Z,26.03
2019-03-01T07:10:31.816Z,15.60
2019-03-01T07:12:59.419Z,18.57
2019-03-01T07:15:26.949Z,14.90
2019-03-01T07:17:54.416Z,18.77
2019-03-01T07:20:21.905Z,20.87
2019-03-01T07:22:49.368Z,19.70
2019-03-01T07:25:17.318Z,16.55
2019-03-01T07:27:44.794Z,17.32
2019-03-01T07:30:12.326Z,20.97
2019-03-01T07:32:39.776Z,18.42
2019-03-01T07:35:07.407Z,16.33
2019-03-01T07:37:34.899Z,13.20
2019-03-01T07:40:02.347Z,11.70
2019-03-01T07:42:29.884Z,9.85
2019-03-01T07:44:57.369Z,13.20
2019-03-01T07:47:24.835Z,8.98
2019-03-01T07:49:52.332Z,10.45
2019-03-01T07:52:19.817Z,10.73
2019-03-01T07:54:49.397Z,12.60
2019-03-01T07:57:16.807Z,14.27
2019-03-01T07:59:44.262Z,9.70
2019-03-01T08:02:11.793Z,13.53
2019-03-01T08:04:39.255Z,13.45
2019-03-01T08:07:06.783Z,9.77
2019-03-01T08:09:36.156Z,11.27
2019-03-01T08:12:06.695Z,8.30
2019-03-01T08:14:32.829Z,6.43
2019-03-01T08:17:00.336Z,7.20
2019-03-01T08:19:28.250Z,7.05
2019-03-01T08:21:55.712Z,8.10
2019-03-01T08:24:23.582Z,5.50
2019-03-01T08:26:51.124Z,6.42
2019-03-01T08:29:18.709Z,6.20
2019-03-01T08:31:46.187Z,8.47
2019-03-01T08:34:14.472Z,7.23
2019-03-01T08:36:43.693Z,6.30
2019-03-01T08:39:11.370Z,7.73
2019-03-01T08:41:38.859Z,5.10
2019-03-01T08:44:06.326Z,10.60
2019-03-01T08:46:33.825Z,7.45
2019-03-01T08:49:01.606Z,7.20
2019-03-01T08:51:29.213Z,6.67
2019-03-01T08:53:56.723Z,6.40
2019-03-01T08:56:26.133Z,6.37
2019-03-01T08:58:53.489Z,8.80
2019-03-01T09:01:21.119Z,9.73
2019-03-01T09:03:53.068Z,5.37
2019-03-01T09:06:20.539Z,5.37
2019-03-01T09:08:48.044Z,6.70
2019-03-01T09:11:15.625Z,6.72
2019-03-01T09:13:43.128Z,5.50
2019-03-01T09:16:10.653Z,5.67
2019-03-01T09:18:38.111Z,8.48
2019-03-01T09:21:06.258Z,9.00
2019-03-01T09:23:33.864Z,10.63
2019-03-01T09:26:01.318Z,9.33
2019-03-01T09:28:28.795Z,10.85
2019-03-01T09:30:56.253Z,7.47
2019-03-01T09:33:23.930Z,12.33
2019-03-01T09:35:59.034Z,7.20
2019-03-01T09:38:26.580Z,8.73
2019-03-01T09:40:54.650Z,7.00
2019-03-01T09:43:24.725Z,7.62
2019-03-01T09:45:51.579Z,8.98
2019-03-01T09:48:19.036Z,8.20
2019-03-01T09:50:46.507Z,7.03
2019-03-01T09:53:14.015Z,6.85
2019-03-01T09:55:41.460Z,9.38
2019-03-01T09:58:08.938Z,10.63
2019-03-01T10:00:37.675Z,12.60
2019-03-01T10:03:05.144Z,9.83
2019-03-01T10:05:32.583Z,11.35
2019-03-01T10:08:00.076Z,13.15
2019-03-01T10:10:27.884Z,10.15
2019-03-01T10:12:55.368Z,9.58
2019-03-01T10:15:22.860Z,12.20
2019-03-01T10:17:50.321Z,11.57
2019-03-01T10:20:17.827Z,12.93
2019-03-01T10:22:45.321Z,10.63
2019-03-01T10:25:12.998Z,9.83
2019-03-01T10:27:40.461Z,8.10
2019-03-01T10:30:14.123Z,12.15
2019-03-01T10:32:41.565Z,11.60
2019-03-01T10:35:09.557Z,12.23
2019-03-01T10:37:37.013Z,12.20
2019-03-01T10:40:04.866Z,11.18
2019-03-01T10:42:32.409Z,9.53
2019-03-01T10:44:59.911Z,10.03
2019-03-01T10:47:27.383Z,13.15
2019-03-01T10:49:54.833Z,9.40
2019-03-01T10:52:22.306Z,9.23
2019-03-01T10:54:49.791Z,9.90
2019-03-01T10:57:17.273Z,11.15
2019-03-01T10:59:44.754Z,8.43
2019-03-01T11:02:12.223Z,9.38
2019-03-01T11:04:39.666Z,9.20
2019-03-01T11:07:07.263Z,7.37
2019-03-01T11:09:34.706Z,7.08
2019-03-01T11:12:02.294Z,9.73
2019-03-01T11:14:29.766Z,11.78
2019-03-01T11:16:57.236Z,6.60
2019-03-01T11:19:24.691Z,7.37
2019-03-01T11:21:52.115Z,8.60
2019-03-01T11:24:19.605Z,11.35
2019-03-01T11:26:47.123Z,7.95
2019-03-01T11:29:14.635Z,6.47
2019-03-01T11:31:42.087Z,5.83
2019-03-01T11:34:09.564Z,9.15
2019-03-01T11:36:37.035Z,5.12
2019-03-01T11:39:05.720Z,5.12
2019-03-01T11:41:33.495Z,7.87
2019-03-01T11:44:00.962Z,6.60
2019-03-01T11:46:28.705Z,8.18
2019-03-01T11:48:56.179Z,4.95
2019-03-01T11:51:23.673Z,6.12
2019-03-01T11:53:51.191Z,4.25
2019-03-01T11:56:18.654Z,5.70
2019-03-01T11:58:46.126Z,6.40
2019-03-01T12:01:17.067Z,4.62
2019-03-01T12:03:42.875Z,4.53
2019-03-01T12:06:10.342Z,4.87
2019-03-01T12:08:37.816Z,5.47
2019-03-01T12:11:05.335Z,3.50
2019-03-01T12:13:32.850Z,5.55
2019-03-01T12:16:00.312Z,4.75
2019-03-01T12:18:27.776Z,8.78
2019-03-01T12:20:55.238Z,4.60
2019-03-01T12:23:22.763Z,8.60
2019-03-01T12:25:50.242Z,6.80
2019-03-01T12:28:17.727Z,7.22
2019-03-01T12:30:45.246Z,7.37
2019-03-01T12:33:13.014Z,5.80
2019-03-01T12:35:40.522Z,8.78
2019-03-01T12:38:07.997Z,4.12
2019-03-01T12:40:35.497Z,4.33
2019-03-01T12:43:02.974Z,4.78
2019-03-01T12:45:30.429Z,5.60
2019-03-01T12:47:57.908Z,6.05
2019-03-01T12:50:25.409Z,5.30
2019-03-01T12:52:53.005Z,5.53
2019-03-01T12:55:21.015Z,4.83
2019-03-01T12:57:48.513Z,5.85
2019-03-01T13:00:19.707Z,5.70
2019-03-01T13:02:47.175Z,4.67
2019-03-01T13:05:14.690Z,4.53
2019-03-01T13:07:42.822Z,5.35
2019-03-01T13:10:13.346Z,4.50
2019-03-01T13:12:41.023Z,4.72
2019-03-01T13:15:10.634Z,5.05
2019-03-01T13:17:38.702Z,6.03
2019-03-01T13:20:08.640Z,5.47
2019-03-01T13:22:36.159Z,5.67
2019-03-01T13:25:03.951Z,8.15
2019-03-01T13:27:31.525Z,8.05
2019-03-01T13:29:59.802Z,6.05
2019-03-01T13:32:27.406Z,6.28
2019-03-01T13:34:54.947Z,6.10
2019-03-01T13:37:25.964Z,6.05
2019-03-01T13:39:53.505Z,6.53
2019-03-01T13:42:21.067Z,8.83
2019-03-01T13:44:48.623Z,7.20
2019-03-01T13:47:16.135Z,7.05
2019-03-01T13:49:43.687Z,8.48
2019-03-01T13:52:11.225Z,9.80
2019-03-01T13:54:38.725Z,10.95
2019-03-01T13:57:08.390Z,13.28
2019-03-01T13:59:37.612Z,13.13
2019-03-01T14:02:08.506Z,10.98
2019-03-01T14:04:36.621Z,13.55
2019-03-01T14:07:05.400Z,9.43
2019-03-01T14:09:34.415Z,10.78
2019-03-01T14:12:02.038Z,8.70
2019-03-01T14:14:29.688Z,11.15
2019-03-01T14:16:57.256Z,8.30
2019-03-01T14:19:24.711Z,10.28
2019-03-01T14:21:52.216Z,8.80
2019-03-01T14:24:19.764Z,6.92
2019-03-01T14:26:47.199Z,6.53
2019-03-01T14:29:16.000Z,7.58
2019-03-01T14:31:44.011Z,7.30
2019-03-01T14:34:11.791Z,6.80
2019-03-01T14:36:43.165Z,6.97
2019-03-01T14:39:16.942Z,9.68
2019-03-01T14:41:44.474Z,7.08
2019-03-01T14:44:12.018Z,6.50
2019-03-01T14:46:39.584Z,9.95
2019-03-01T14:49:07.052Z,7.37
2019-03-01T14:51:34.539Z,7.97
2019-03-01T14:54:02.135Z,7.08
2019-03-01T14:56:34.715Z,8.18
2019-03-01T14:59:14.540Z,7.55
2019-03-01T15:02:10.156Z,6.00
2019-03-01T15:04:37.742Z,7.47
2019-03-01T15:07:05.256Z,6.50
2019-03-01T15:09:32.763Z,9.83
2019-03-01T15:12:00.271Z,4.87
2019-03-01T15:14:27.794Z,6.72
2019-03-01T15:16:55.314Z,9.25
2019-03-01T15:19:22.784Z,10.93
2019-03-01T15:21:50.290Z,10.70
2019-03-01T15:24:17.728Z,7.92
2019-03-01T15:26:46.166Z,9.10
2019-03-01T15:29:13.864Z,9.93
2019-03-01T15:31:41.429Z,8.95
2019-03-01T15:34:08.919Z,9.00
2019-03-01T15:36:36.423Z,7.45
2019-03-01T15:39:05.515Z,7.92
2019-03-01T15:41:33.049Z,8.50
2019-03-01T15:44:00.582Z,8.15
2019-03-01T15:46:29.872Z,10.43
2019-03-01T15:48:57.553Z,9.83
2019-03-01T15:51:25.047Z,9.95
2019-03-01T15:53:52.554Z,8.00
2019-03-01T15:56:22.023Z,9.75
2019-03-01T15:58:49.272Z,9.50
2019-03-01T16:01:17.035Z,14.00
2019-03-01T16:03:44.738Z,13.53
2019-03-01T16:06:17.435Z,12.55
2019-03-01T16:08:43.865Z,10.45
2019-03-01T16:11:12.623Z,13.10
2019-03-01T16:13:40.099Z,12.07
2019-03-01T16:16:07.618Z,13.80
2019-03-01T16:18:38.505Z,12.47
2019-03-01T16:21:06.084Z,17.45
2019-03-01T16:23:33.749Z,18.07
2019-03-01T16:26:01.311Z,14.53
2019-03-01T16:28:31.144Z,17.10
2019-03-01T16:30:58.063Z,20.48
2019-03-01T16:33:26.345Z,19.75
2019-03-01T16:35:54.876Z,18.77
2019-03-01T16:38:22.404Z,21.42
2019-03-01T16:40:49.880Z,23.47
2019-03-01T16:43:17.436Z,24.12
2019-03-01T16:45:44.895Z,24.53
2019-03-01T16:48:13.618Z,23.32
2019-03-01T16:50:43.990Z,26.27
2019-03-01T16:53:11.045Z,22.57
2019-03-01T16:55:38.558Z,29.00
2019-03-01T16:58:07.146Z,30.83
2019-03-01T17:00:34.947Z,32.97
2019-03-01T17:03:02.520Z,28.87
2019-03-01T17:05:30.047Z,38.50
2019-03-01T17:07:59.653Z,39.37
2019-03-01T17:10:30.298Z,48.67
2019-03-01T17:12:56.186Z,45.83
2019-03-01T17:15:23.678Z,57.38
2019-03-01T17:17:51.193Z,41.80
2019-03-01T17:20:18.640Z,48.83
2019-03-01T17:22:46.132Z,42.93
2019-03-01T17:25:14.763Z,49.20
2019-03-01T17:27:43.438Z,50.00
2019-03-01T17:30:14.395Z,47.25
2019-03-01T17:32:42.502Z,51.65
2019-03-01T17:35:10.710Z,56.37
2019-03-01T17:37:38.432Z,68.23
2019-03-01T17:40:06.856Z,76.97
2019-03-01T17:42:34.438Z,85.90
2019-03-01T17:45:02.051Z,77.50
2019-03-01T17:47:30.664Z,83.87
2019-03-01T17:49:58.805Z,86.37
2019-03-01T17:52:26.283Z,82.73
2019-03-01T17:54:53.836Z,84.10
2019-03-01T17:57:21.437Z,89.30
2019-03-01T17:59:49.353Z,92.17
2019-03-01T18:02:16.962Z,89.50
2019-03-01T18:04:44.443Z,94.20
2019-03-01T18:07:12.033Z,89.10
2019-03-01T18:09:39.528Z,87.43
2019-03-01T18:12:07.076Z,94.23
2019-03-01T18:14:36.974Z,94.17
2019-03-01T18:17:03.834Z,96.93
2019-03-01T18:19:31.375Z,93.17
2019-03-01T18:22:01.103Z,96.70
2019-03-01T18:24:28.662Z,82.92
2019-03-01T18:26:56.237Z,101.67
2019-03-01T18:29:23.794Z,93.80
2019-03-01T18:31:51.894Z,96.30
2019-03-01T18:34:19.604Z,90.87
2019-03-01T18:36:47.093Z,91.03
2019-03-01T18:39:14.842Z,89.33
2019-03-01T18:41:42.389Z,89.83
2019-03-01T18:44:09.952Z,90.57
2019-03-01T18:46:37.624Z,94.03
2019-03-01T18:49:06.303Z,86.90
2019-03-01T18:51:33.979Z,88.30
2019-03-01T18:54:04.086Z,86.53
2019-03-01T18:56:31.103Z,84.67
2019-03-01T18:59:21.734Z,89.80
2019-03-01T19:01:47.883Z,87.37
2019-03-01T19:04:16.763Z,69.43
2019-03-01T19:06:45.311Z,74.47
2019-03-01T19:09:16.622Z,73.00
2019-03-01T19:11:42.602Z,76.23
2019-03-01T19:14:10.168Z,72.27
2019-03-01T19:16:38.025Z,77.80
2019-03-01T19:19:05.639Z,75.33
2019-03-01T19:21:33.225Z,80.40
2019-03-01T19:24:00.759Z,75.23
2019-03-01T19:26:28.670Z,76.10
2019-03-01T19:28:58.902Z,77.10
2019-03-01T19:31:26.785Z,70.53
2019-03-01T19:33:54.512Z,76.97
2019-03-01T19:36:24.217Z,83.53
2019-03-01T19:38:51.693Z,76.10
2019-03-01T19:41:20.022Z,72.90
2019-03-01T19:43:54.904Z,73.13
2019-03-01T19:46:18.169Z,73.47
2019-03-01T19:48:45.667Z,79.30
2019-03-01T19:51:16.755Z,86.30
2019-03-01T19:53:44.963Z,76.53
2019-03-01T19:56:12.827Z,76.13
2019-03-01T19:58:40.275Z,78.90
2019-03-01T20:01:08.039Z,88.00
2019-03-01T20:03:35.593Z,85.53
2019-03-01T20:06:04.509Z,82.60
2019-03-01T20:08:32.947Z,79.37
2019-03-01T20:11:00.522Z,80.73
2019-03-01T20:13:28.150Z,83.10
2019-03-01T20:15:56.028Z,98.03
2019-03-01T20:18:24.556Z,106.70
2019-03-01T20:20:52.060Z,113.30
2019-03-01T20:23:19.620Z,114.67
2019-03-01T20:25:47.517Z,116.53
2019-03-01T20:28:16.698Z,111.30
2019-03-01T20:30:44.396Z,101.47
2019-03-01T20:33:12.970Z,94.70
2019-03-01T20:35:40.536Z,93.50
2019-03-01T20:38:12.110Z,106.97
2019-03-01T20:40:39.801Z,109.33
2019-03-01T20:43:07.405Z,124.83
2019-03-01T20:45:35.005Z,122.03
2019-03-01T20:48:03.131Z,114.27
2019-03-01T20:50:30.608Z,121.00
2019-03-01T20:52:58.174Z,114.77
2019-03-01T20:55:25.945Z,119.47
2019-03-01T20:57:53.713Z,122.93
2019-03-01T21:00:22.673Z,111.43
2019-03-01T21:02:51.967Z,107.70
2019-03-01T21:08:08.959Z,103.47
2019-03-01T21:10:36.491Z,107.90
2019-03-01T21:13:05.058Z,115.03
2019-03-01T21:15:34.627Z,102.93
2019-03-01T21:18:01.966Z,106.17
2019-03-01T21:20:29.855Z,103.80
2019-03-01T21:22:57.445Z,103.33
2019-03-01T21:25:24.983Z,102.97
2019-03-01T21:27:52.579Z,100.73
2019-03-01T21:30:24.021Z,97.77
2019-03-01T21:32:52.486Z,106.73
2019-03-01T21:35:20.152Z,113.23
2019-03-01T21:37:47.881Z,104.50
2019-03-01T21:40:15.730Z,112.47
2019-03-01T21:42:43.311Z,101.20
2019-03-01T21:45:12.856Z,105.00
2019-03-01T21:47:40.848Z,102.63
2019-03-01T21:50:08.432Z,98.33
2019-03-01T21:52:37.179Z,107.40
2019-03-01T21:55:08.081Z,101.90
2019-03-01T21:57:35.563Z,106.37
2019-03-01T22:00:04.090Z,100.47
2019-03-01T22:02:32.249Z,103.47
2019-03-01T22:04:59.776Z,109.90
2019-03-01T22:07:27.336Z,98.97
2019-03-01T22:09:56.743Z,104.03
2019-03-01T22:12:25.593Z,101.30
2019-03-01T22:14:53.156Z,109.23
2019-03-01T22:17:20.663Z,105.57
2019-03-01T22:19:48.177Z,104.77
2019-03-01T22:22:15.708Z,107.73
2019-03-01T22:24:43.250Z,104.73
2019-03-01T22:27:10.835Z,94.83
2019-03-01T22:29:38.329Z,102.70
2019-03-01T22:32:07.417Z,104.70
2019-03-01T22:34:35.149Z,115.40
2019-03-01T22:37:02.669Z,115.73
2019-03-01T22:39:30.167Z,109.13
2019-03-01T22:41:57.688Z,110.60
2019-03-01T22:44:25.267Z,106.47
2019-03-01T22:46:52.843Z,100.83
2019-03-01T22:49:20.404Z,105.17
2019-03-01T22:51:49.549Z,107.97
2019-03-01T22:54:25.685Z,132.63
2019-03-01T22:56:53.194Z,107.73
2019-03-01T22:59:20.849Z,107.53
2019-03-01T23:01:50.670Z,113.83
2019-03-01T23:04:18.478Z,104.50
2019-03-01T23:06:47.623Z,103.40
2019-03-01T23:09:15.462Z,103.90
2019-03-01T23:11:42.996Z,113.43
2019-03-01T23:14:10.843Z,97.63
2019-03-01T23:16:38.482Z,89.47
2019-03-01T23:19:26.318Z,82.20
2019-03-01T23:21:53.860Z,88.83
2019-03-01T23:24:21.595Z,80.03
2019-03-01T23:26:49.513Z,76.10
2019-03-01T23:29:18.891Z,73.97
2019-03-01T23:31:46.699Z,67.03
2019-03-01T23:34:14.207Z,82.10
2019-03-01T23:36:41.927Z,66.93
2019-03-01T23:39:09.736Z,64.93
2019-03-01T23:44:41.507Z,58.60
2019-03-01T23:47:08.992Z,72.33
2019-03-01T23:49:36.577Z,66.47
2019-03-01T23:52:04.219Z,57.27
2019-03-01T23:54:31.807Z,58.77
2019-03-01T23:57:01.989Z,60.03
2019-03-01T23:59:30.060Z,65.47
